createdAt,value
2023-03-22T00:00:18.197Z,22.5835
2023-03-22T00:01:19.606Z,22.5834
2023-03-22T00:02:21.054Z,22.5834
2023-03-22T00:03:22.510Z,22.5853
2023-03-22T00:04:23.861Z,22.5833
2023-03-22T00:05:25.289Z,22.5774
2023-03-22T00:06:26.724Z,22.5759
2023-03-22T00:07:28.153Z,22.5779
2023-03-22T00:08:29.558Z,22.5756
2023-03-22T00:09:30.974Z,22.5727
2023-03-22T00:10:32.398Z,22.5746
2023-03-22T00:11:33.806Z,22.5740
2023-03-22T00:12:35.254Z,22.5719
2023-03-22T00:13:36.681Z,22.5729
2023-03-22T00:14:38.106Z,22.5719
2023-03-22T00:15:39.560Z,22.5716
2023-03-22T00:16:40.934Z,22.5730
2023-03-22T00:17:42.344Z,22.5765
2023-03-22T00:18:43.767Z,22.5772
2023-03-22T00:19:45.202Z,22.5779
2023-03-22T00:20:46.618Z,22.5794
2023-03-22T00:21:48.034Z,22.5805
2023-03-22T00:22:49.460Z,22.5791
2023-03-22T00:23:50.886Z,22.5809
2023-03-22T00:24:52.322Z,22.5795
2023-03-22T00:25:53.718Z,22.5822
2023-03-22T00:26:55.156Z,22.5785
2023-03-22T00:27:56.576Z,22.5726
2023-03-22T00:28:58.016Z,22.5725
2023-03-22T00:29:59.547Z,22.5729
2023-03-22T00:31:00.948Z,22.5747
2023-03-22T00:32:02.291Z,22.5772
2023-03-22T00:33:03.726Z,22.5779
2023-03-22T00:34:05.132Z,22.5794
2023-03-22T00:35:06.574Z,22.5777
2023-03-22T00:36:07.988Z,22.5776
2023-03-22T00:37:09.432Z,22.5743
2023-03-22T00:38:10.841Z,22.5741
2023-03-22T00:39:12.263Z,22.5758
2023-03-22T00:40:13.676Z,22.5748
2023-03-22T00:41:15.115Z,22.5745
2023-03-22T00:42:16.528Z,22.5737
2023-03-22T00:43:17.966Z,22.5759
2023-03-22T00:44:19.377Z,22.5767
2023-03-22T00:45:20.823Z,22.5771
2023-03-22T00:46:22.320Z,22.5779
2023-03-22T00:47:23.667Z,22.5789
2023-03-22T00:48:25.111Z,22.5739
2023-03-22T00:49:26.514Z,22.5770
2023-03-22T00:50:27.926Z,22.5759
2023-03-22T00:51:29.364Z,22.5743
2023-03-22T00:52:30.767Z,22.5705
2023-03-22T00:53:32.195Z,22.5654
2023-03-22T00:54:33.619Z,22.5667
2023-03-22T00:55:35.051Z,22.5638
2023-03-22T00:56:36.488Z,22.5609
2023-03-22T00:57:37.952Z,22.5619
2023-03-22T00:58:39.317Z,22.5593
2023-03-22T00:59:40.757Z,22.5557
2023-03-22T01:00:42.518Z,22.5544
2023-03-22T01:01:43.602Z,22.5553
2023-03-22T01:02:45.038Z,22.5531
2023-03-22T01:03:46.489Z,22.5553
2023-03-22T01:04:47.887Z,22.5568
2023-03-22T01:05:49.409Z,22.5571
2023-03-22T01:06:50.820Z,22.5575
2023-03-22T01:07:52.239Z,22.5573
2023-03-22T01:08:53.672Z,22.5573
2023-03-22T01:09:55.099Z,22.5584
2023-03-22T01:10:56.521Z,22.5569
2023-03-22T01:11:57.928Z,22.5541
2023-03-22T01:12:59.360Z,22.5504
2023-03-22T01:14:00.794Z,22.5511
2023-03-22T01:15:02.242Z,22.5488
2023-03-22T01:16:03.661Z,22.5477
2023-03-22T01:17:05.077Z,22.5474
2023-03-22T01:18:06.508Z,22.5499
2023-03-22T01:19:07.918Z,22.5479
2023-03-22T01:20:09.355Z,22.5492
2023-03-22T01:21:10.766Z,22.5534
2023-03-22T01:22:12.195Z,22.5533
2023-03-22T01:23:13.631Z,22.5513
2023-03-22T01:24:15.039Z,22.5561
2023-03-22T01:25:16.448Z,22.5549
2023-03-22T01:26:17.903Z,22.5539
2023-03-22T01:27:19.306Z,22.5561
2023-03-22T01:28:20.761Z,22.5547
2023-03-22T01:29:22.161Z,22.5565
2023-03-22T01:30:23.607Z,22.5566
2023-03-22T01:31:25.007Z,22.5543
2023-03-22T01:32:26.443Z,22.5554
2023-03-22T01:33:27.873Z,22.5545
2023-03-22T01:34:29.301Z,22.5547
2023-03-22T01:35:30.781Z,22.5519
2023-03-22T01:36:32.158Z,22.5528
2023-03-22T01:37:33.593Z,22.5534
2023-03-22T01:38:35.041Z,22.5539
2023-03-22T01:39:36.441Z,22.5558
2023-03-22T01:40:38.319Z,22.5586
2023-03-22T01:41:39.289Z,22.5559
2023-03-22T01:42:40.722Z,22.5547
2023-03-22T01:43:42.196Z,22.5565
2023-03-22T01:44:43.579Z,22.5557
2023-03-22T01:45:45.003Z,22.5560
2023-03-22T01:46:46.438Z,22.5539
2023-03-22T01:47:47.846Z,22.5576
2023-03-22T01:48:49.327Z,22.5637
2023-03-22T01:49:50.705Z,22.5688
2023-03-22T01:50:52.139Z,22.5739
2023-03-22T01:51:53.557Z,22.5771
2023-03-22T01:52:54.988Z,22.5802
2023-03-22T01:53:56.423Z,22.5806
2023-03-22T01:54:57.835Z,22.5827
2023-03-22T01:55:59.260Z,22.5837
2023-03-22T01:57:00.697Z,22.5841
2023-03-22T01:58:02.101Z,22.5858
2023-03-22T01:59:03.537Z,22.5865
2023-03-22T02:00:04.945Z,22.5846
2023-03-22T02:01:06.469Z,22.5828
2023-03-22T02:02:07.797Z,22.5805
2023-03-22T02:03:09.220Z,22.5728
2023-03-22T02:04:10.656Z,22.5715
2023-03-22T02:05:12.090Z,22.5683
2023-03-22T02:06:13.515Z,22.5654
2023-03-22T02:07:14.916Z,22.5648
2023-03-22T02:08:16.345Z,22.5678
2023-03-22T02:09:17.783Z,22.5681
2023-03-22T02:10:19.201Z,22.5679
2023-03-22T02:11:20.648Z,22.5747
2023-03-22T02:12:22.055Z,22.5803
2023-03-22T02:13:23.504Z,22.5892
2023-03-22T02:14:27.191Z,22.5948
2023-03-22T02:15:26.311Z,22.5910
2023-03-22T02:16:27.752Z,22.5844
2023-03-22T02:17:29.174Z,22.5815
2023-03-22T02:18:30.568Z,22.5760
2023-03-22T02:19:31.986Z,22.5803
2023-03-22T02:20:33.393Z,22.5827
2023-03-22T02:21:34.812Z,22.5805
2023-03-22T02:22:36.210Z,22.5789
2023-03-22T02:23:37.682Z,22.5776
2023-03-22T02:24:39.073Z,22.5828
2023-03-22T02:25:40.501Z,22.5887
2023-03-22T02:26:41.913Z,22.5898
2023-03-22T02:27:43.341Z,22.5946
2023-03-22T02:28:44.828Z,22.5921
2023-03-22T02:29:46.194Z,22.5929
2023-03-22T02:30:47.606Z,22.5878
2023-03-22T02:31:49.047Z,22.5855
2023-03-22T02:32:50.437Z,22.5864
2023-03-22T02:33:51.871Z,22.5771
2023-03-22T02:34:53.274Z,22.5733
2023-03-22T02:35:54.716Z,22.5727
2023-03-22T02:36:56.124Z,22.5715
2023-03-22T02:37:57.579Z,22.5664
2023-03-22T02:38:58.961Z,22.5644
2023-03-22T02:40:00.374Z,22.5632
2023-03-22T02:41:01.797Z,22.5640
2023-03-22T02:42:03.242Z,22.5661
2023-03-22T02:43:04.632Z,22.5720
2023-03-22T02:44:06.081Z,22.5747
2023-03-22T02:45:07.472Z,22.5751
2023-03-22T02:46:09.020Z,22.5775
2023-03-22T02:47:10.318Z,22.5781
2023-03-22T02:48:11.805Z,22.5734
2023-03-22T02:49:13.193Z,22.5710
2023-03-22T02:50:14.588Z,22.5699
2023-03-22T02:51:15.996Z,22.5687
2023-03-22T02:52:17.437Z,22.5688
2023-03-22T02:53:18.849Z,22.5728
2023-03-22T02:54:20.307Z,22.5741
2023-03-22T02:55:21.675Z,22.5719
2023-03-22T02:56:23.136Z,22.5722
2023-03-22T02:57:24.528Z,22.5715
2023-03-22T02:58:25.964Z,22.5722
2023-03-22T02:59:27.373Z,22.5725
2023-03-22T03:00:28.844Z,22.5754
2023-03-22T03:01:30.295Z,22.5756
2023-03-22T03:02:31.684Z,22.5762
2023-03-22T03:03:33.071Z,22.5778
2023-03-22T03:04:34.507Z,22.5749
2023-03-22T03:05:35.906Z,22.5735
2023-03-22T03:06:37.347Z,22.5743
2023-03-22T03:07:38.774Z,22.5745
2023-03-22T03:08:40.188Z,22.5731
2023-03-22T03:09:41.623Z,22.5727
2023-03-22T03:10:43.049Z,22.5714
2023-03-22T03:11:44.472Z,22.5703
2023-03-22T03:12:45.891Z,22.5690
2023-03-22T03:13:47.307Z,22.5692
2023-03-22T03:14:48.741Z,22.5681
2023-03-22T03:15:50.155Z,22.5690
2023-03-22T03:16:51.591Z,22.5690
2023-03-22T03:17:52.999Z,22.5694
2023-03-22T03:18:54.413Z,22.5672
2023-03-22T03:19:55.830Z,22.5646
2023-03-22T03:20:57.269Z,22.5627
2023-03-22T03:21:58.680Z,22.5631
2023-03-22T03:23:00.112Z,22.5662
2023-03-22T03:24:01.544Z,22.5729
2023-03-22T03:25:02.938Z,22.5713
2023-03-22T03:26:04.352Z,22.5705
2023-03-22T03:27:05.775Z,22.5676
2023-03-22T03:28:07.238Z,22.5664
2023-03-22T03:29:08.627Z,22.5645
2023-03-22T03:30:10.079Z,22.5674
2023-03-22T03:31:11.544Z,22.5700
2023-03-22T03:32:12.905Z,22.5751
2023-03-22T03:33:14.421Z,22.5784
2023-03-22T03:34:15.757Z,22.5838
2023-03-22T03:35:17.203Z,22.5833
2023-03-22T03:36:18.596Z,22.5785
2023-03-22T03:37:20.015Z,22.5808
2023-03-22T03:38:21.442Z,22.5798
2023-03-22T03:39:22.845Z,22.5786
2023-03-22T03:40:24.280Z,22.5803
2023-03-22T03:41:25.697Z,22.5771
2023-03-22T03:42:27.121Z,22.5809
2023-03-22T03:43:28.554Z,22.5795
2023-03-22T03:44:29.988Z,22.5768
2023-03-22T03:45:31.405Z,22.5749
2023-03-22T03:46:32.829Z,22.5753
2023-03-22T03:47:34.248Z,22.5769
2023-03-22T03:48:35.687Z,22.5794
2023-03-22T03:49:37.091Z,22.5762
2023-03-22T03:50:38.868Z,22.5710
2023-03-22T03:51:39.916Z,22.5674
2023-03-22T03:52:41.376Z,22.5644
2023-03-22T03:53:42.767Z,22.5616
2023-03-22T03:54:44.204Z,22.5613
2023-03-22T03:55:45.610Z,22.5618
2023-03-22T03:56:47.033Z,22.5642
2023-03-22T03:57:48.453Z,22.5687
2023-03-22T03:58:49.876Z,22.5715
2023-03-22T03:59:51.316Z,22.5720
2023-03-22T04:00:52.751Z,22.5729
2023-03-22T04:01:54.238Z,22.5695
2023-03-22T04:02:55.576Z,22.5723
2023-03-22T04:03:57.017Z,22.5754
2023-03-22T04:04:58.431Z,22.5757
2023-03-22T04:05:59.971Z,22.5782
2023-03-22T04:07:01.273Z,22.5810
2023-03-22T04:08:02.691Z,22.5765
2023-03-22T04:09:04.138Z,22.5771
2023-03-22T04:10:05.570Z,22.5743
2023-03-22T04:11:06.976Z,22.5785
2023-03-22T04:12:08.403Z,22.5724
2023-03-22T04:13:09.794Z,22.5708
2023-03-22T04:14:11.209Z,22.5706
2023-03-22T04:15:12.638Z,22.5733
2023-03-22T04:16:14.114Z,22.5718
2023-03-22T04:17:15.485Z,22.5691
2023-03-22T04:18:16.896Z,22.5703
2023-03-22T04:19:18.317Z,22.5712
2023-03-22T04:20:19.753Z,22.5707
2023-03-22T04:21:21.212Z,22.5690
2023-03-22T04:22:22.587Z,22.5645
2023-03-22T04:23:24.033Z,22.5604
2023-03-22T04:24:25.476Z,22.5642
2023-03-22T04:25:26.859Z,22.5666
2023-03-22T04:26:28.289Z,22.5632
2023-03-22T04:27:29.714Z,22.5612
2023-03-22T04:28:31.119Z,22.5615
2023-03-22T04:29:32.546Z,22.5633
2023-03-22T04:30:33.970Z,22.5613
2023-03-22T04:31:35.395Z,22.5468
2023-03-22T04:32:36.819Z,22.5617
2023-03-22T04:33:38.251Z,22.5929
2023-03-22T04:34:39.679Z,22.6138
2023-03-22T04:35:41.154Z,22.6287
2023-03-22T04:36:42.526Z,22.6399
2023-03-22T04:37:43.949Z,22.6403
2023-03-22T04:38:45.367Z,22.6406
2023-03-22T04:39:46.801Z,22.6410
2023-03-22T04:40:48.215Z,22.6376
2023-03-22T04:41:49.635Z,22.6260
2023-03-22T04:42:51.055Z,22.6203
2023-03-22T04:43:52.520Z,22.6135
2023-03-22T04:44:53.894Z,22.6095
2023-03-22T04:45:55.365Z,22.6053
2023-03-22T04:46:56.735Z,21.8790
2023-03-22T04:47:58.169Z,20.3790
2023-03-22T04:48:59.570Z,19.3719
2023-03-22T04:50:01.006Z,18.3710
2023-03-22T04:51:02.424Z,17.5776
2023-03-22T04:52:03.836Z,16.8320
2023-03-22T04:53:05.261Z,16.0242
2023-03-22T04:54:06.702Z,15.8218
2023-03-22T04:55:08.121Z,16.6500
2023-03-22T04:56:09.531Z,17.6775
2023-03-22T04:57:10.960Z,18.5588
2023-03-22T04:58:12.370Z,19.2570
2023-03-22T04:59:13.782Z,19.8075
2023-03-22T05:00:15.288Z,20.2401
